createdAt,value
2022-09-21T00:04:03.043Z,101237.63
2022-09-21T00:08:59.891Z,101230.91
2022-09-21T00:13:59.352Z,101234.53
2022-09-21T00:18:56.806Z,101239.59
2022-09-21T00:23:53.932Z,101234.28
2022-09-21T00:28:56.667Z,101229.66
2022-09-21T00:33:53.840Z,101236.78
2022-09-21T00:38:52.656Z,101242.41
2022-09-21T00:44:09.056Z,101246.53
2022-09-21T00:49:05.896Z,101241.38
2022-09-21T00:54:07.997Z,101242.03
2022-09-21T00:59:21.952Z,101245.50
2022-09-21T01:04:22.971Z,101252.31
2022-09-21T01:09:20.685Z,101248.94
2022-09-21T01:14:30.413Z,101249.91
2022-09-21T01:19:40.182Z,101254.84
2022-09-21T01:24:45.974Z,101254.19
2022-09-21T01:29:47.148Z,101252.06
2022-09-21T01:34:47.263Z,101245.19
2022-09-21T01:39:45.963Z,101242.97
2022-09-21T01:44:45.492Z,101242.53
2022-09-21T01:49:45.502Z,101238.03
2022-09-21T01:54:46.251Z,101239.38
2022-09-21T01:59:48.211Z,101243.53
2022-09-21T02:04:48.792Z,101244.78
2022-09-21T02:09:49.956Z,101240.56
2022-09-21T02:14:48.074Z,101244.13
2022-09-21T02:19:49.001Z,101250.91
2022-09-21T02:24:50.462Z,101244.03
2022-09-21T02:29:49.748Z,101241.66
2022-09-21T02:34:50.090Z,101247.72
2022-09-21T02:39:53.122Z,101244.66
2022-09-21T02:44:52.966Z,101250.38
2022-09-21T02:49:54.230Z,101248.31
2022-09-21T02:54:55.710Z,101243.84
2022-09-21T02:59:55.861Z,101243.78
2022-09-21T03:04:54.597Z,101248.63
2022-09-21T03:09:51.297Z,101239.50
2022-09-21T03:14:49.273Z,101238.44
2022-09-21T03:19:47.003Z,101238.19
2022-09-21T03:24:47.088Z,101245.06
2022-09-21T03:29:43.972Z,101253.91
2022-09-21T03:34:41.171Z,101246.06
2022-09-21T03:39:38.888Z,101253.00
2022-09-21T03:44:38.930Z,101258.91
2022-09-21T03:49:35.529Z,101265.44
2022-09-21T03:54:32.311Z,101266.88
2022-09-21T03:59:31.758Z,101267.09
2022-09-21T04:04:30.514Z,101279.75
2022-09-21T04:09:27.431Z,101281.22
2022-09-21T04:14:24.396Z,101284.97
2022-09-21T04:19:24.380Z,101284.91
2022-09-21T04:24:23.586Z,101281.81
2022-09-21T04:29:20.964Z,101290.09
2022-09-21T04:34:17.727Z,101282.56
2022-09-21T04:39:14.514Z,101287.28
2022-09-21T04:44:12.013Z,101292.78
2022-09-21T04:49:08.803Z,101290.00
2022-09-21T04:54:08.375Z,101298.13
2022-09-21T04:59:08.201Z,101298.84
2022-09-21T05:04:08.807Z,101298.84
2022-09-21T05:09:24.040Z,101297.44
2022-09-21T05:14:21.002Z,101296.91
2022-09-21T05:19:19.550Z,101281.53
2022-09-21T05:24:16.308Z,101304.13
2022-09-21T05:29:13.503Z,101298.75
2022-09-21T05:34:18.699Z,101300.91
2022-09-21T05:39:18.069Z,101302.19
2022-09-21T05:44:16.032Z,101297.91
2022-09-21T05:49:24.527Z,101300.28
2022-09-21T05:54:26.044Z,101304.78
2022-09-21T05:59:44.839Z,101298.16
2022-09-21T06:04:42.200Z,101300.91
2022-09-21T06:09:45.631Z,101299.31
2022-09-21T06:14:46.540Z,101279.31
2022-09-21T06:19:46.032Z,101309.09
2022-09-21T06:24:46.379Z,101309.44
2022-09-21T06:29:43.372Z,101308.59
2022-09-21T06:34:42.368Z,101317.94
2022-09-21T06:39:39.205Z,101317.13
2022-09-21T06:44:36.677Z,101318.25
2022-09-21T06:49:33.649Z,101321.97
2022-09-21T06:54:35.176Z,101323.81
2022-09-21T06:59:35.021Z,101326.56
2022-09-21T07:04:37.980Z,101324.47
2022-09-21T07:14:56.746Z,101339.09
2022-09-21T07:19:54.320Z,101334.06
2022-09-21T07:24:51.044Z,101340.97
2022-09-21T07:29:50.872Z,101335.84
2022-09-21T07:34:47.779Z,101329.53
2022-09-21T07:39:48.175Z,101323.59
2022-09-21T07:44:44.949Z,101335.38
2022-09-21T07:49:47.523Z,101321.13
2022-09-21T07:54:44.603Z,101326.19
2022-09-21T07:59:44.400Z,101330.28
2022-09-21T08:04:43.346Z,101325.63
2022-09-21T08:09:40.314Z,101334.38
2022-09-21T08:14:37.062Z,101319.06
2022-09-21T08:19:41.807Z,101324.88
2022-09-21T08:24:40.967Z,101316.88
2022-09-21T08:29:37.977Z,101320.13
2022-09-21T08:34:35.538Z,101300.91
2022-09-21T08:39:32.291Z,101311.34
2022-09-21T08:44:34.412Z,101305.38
2022-09-21T08:49:33.345Z,101295.25
2022-09-21T08:54:41.436Z,101299.75
2022-09-21T08:59:39.156Z,101297.91
2022-09-21T09:04:44.891Z,101288.09
2022-09-21T09:09:58.202Z,101290.06
2022-09-21T09:15:14.480Z,101281.22
2022-09-21T09:20:15.556Z,101274.38
2022-09-21T09:25:19.318Z,101269.13
2022-09-21T09:30:22.614Z,101270.50
2022-09-21T09:35:27.537Z,101260.53
2022-09-21T09:40:33.828Z,101262.63
2022-09-21T09:45:50.469Z,101254.13
2022-09-21T09:50:50.161Z,101259.50
2022-09-21T09:55:51.677Z,101253.56
2022-09-21T10:00:50.777Z,101247.78
2022-09-21T10:05:47.831Z,101247.56
2022-09-21T10:10:44.585Z,101248.44
2022-09-21T10:15:49.017Z,101254.44
2022-09-21T10:20:54.049Z,101249.41
2022-09-21T10:25:54.869Z,101248.94
2022-09-21T10:31:07.363Z,101240.16
2022-09-21T10:36:29.273Z,101241.66
2022-09-21T10:41:26.050Z,101238.44
2022-09-21T10:46:35.809Z,101227.75
2022-09-21T10:51:47.345Z,101232.09
2022-09-21T10:56:50.326Z,101224.75
2022-09-21T11:01:51.082Z,101220.31
2022-09-21T11:06:52.820Z,101215.72
2022-09-21T11:11:53.096Z,101204.00
2022-09-21T11:16:56.340Z,101202.13
2022-09-21T11:21:55.760Z,101194.00
2022-09-21T11:26:56.024Z,101193.72
2022-09-21T11:32:06.091Z,101179.84
2022-09-21T11:37:10.533Z,101174.59
2022-09-21T11:42:19.898Z,101164.19
2022-09-21T11:47:25.835Z,101156.94
2022-09-21T11:52:35.499Z,101149.44
2022-09-21T11:57:37.218Z,101148.38
2022-09-21T12:07:59.208Z,101150.81
2022-09-21T12:13:01.322Z,101155.34
2022-09-21T12:18:07.304Z,101148.06
2022-09-21T12:23:09.279Z,101152.38
2022-09-21T12:28:11.258Z,101149.31
2022-09-21T12:33:14.991Z,101152.41
2022-09-21T12:38:16.071Z,101150.44
2022-09-21T12:43:21.514Z,101139.56
2022-09-21T12:48:25.383Z,101133.38
2022-09-21T12:53:27.355Z,101127.78
2022-09-21T12:58:35.228Z,101131.16
2022-09-21T13:03:38.894Z,101140.31
2022-09-21T13:08:41.368Z,101141.19
2022-09-21T13:13:50.869Z,101136.97
2022-09-21T13:18:57.121Z,101149.88
2022-09-21T13:23:58.326Z,101140.28
2022-09-21T13:29:10.194Z,101138.31
2022-09-21T13:34:21.128Z,101137.44
2022-09-21T13:39:18.538Z,101146.97
2022-09-21T13:44:46.914Z,101141.94
2022-09-21T13:49:46.029Z,101146.97
2022-09-21T13:54:50.456Z,101162.19
2022-09-21T13:59:51.289Z,101157.31
2022-09-21T14:04:50.115Z,101155.22
2022-09-21T14:10:01.197Z,101143.66
2022-09-21T14:15:18.164Z,101147.75
2022-09-21T14:20:30.335Z,101138.63
2022-09-21T14:25:47.801Z,101141.84
2022-09-21T14:30:49.546Z,101144.25
2022-09-21T14:35:48.296Z,101139.13
2022-09-21T14:40:47.345Z,101135.84
2022-09-21T14:45:50.261Z,101140.19
2022-09-21T14:50:54.733Z,101128.66
2022-09-21T14:56:00.578Z,101139.78
2022-09-21T15:01:15.420Z,101125.63
2022-09-21T15:06:37.144Z,101143.28
2022-09-21T15:11:38.120Z,101149.72
2022-09-21T15:16:38.825Z,101157.34
2022-09-21T15:21:37.671Z,101146.34
2022-09-21T15:26:34.357Z,101165.88
2022-09-21T15:31:35.133Z,101165.44
2022-09-21T15:36:36.131Z,101134.25
2022-09-21T15:41:41.323Z,101165.59
2022-09-21T15:46:38.131Z,101162.56
2022-09-21T15:51:39.152Z,101166.59
2022-09-21T15:56:40.706Z,101151.47
2022-09-21T16:01:42.243Z,101173.72
2022-09-21T16:06:41.014Z,101184.06
2022-09-21T16:11:40.652Z,101186.41
2022-09-21T16:17:04.257Z,101196.16
2022-09-21T16:22:03.968Z,101196.97
2022-09-21T16:27:02.520Z,101198.94
2022-09-21T16:32:14.595Z,101205.06
2022-09-21T16:37:28.207Z,101211.81
2022-09-21T16:42:26.611Z,101221.53
2022-09-21T16:47:28.093Z,101236.81
2022-09-21T16:52:26.067Z,101239.78
2022-09-21T16:57:23.916Z,101249.69
2022-09-21T17:02:20.865Z,101281.91
2022-09-21T17:07:18.467Z,101295.19
2022-09-21T17:12:21.698Z,101309.72
2022-09-21T17:17:20.098Z,101314.00
2022-09-21T17:22:28.759Z,101308.16
2022-09-21T17:27:28.887Z,101307.22
2022-09-21T17:32:25.853Z,101294.44
2022-09-21T17:37:25.112Z,101261.69
2022-09-21T17:42:24.548Z,101264.66
2022-09-21T17:47:24.858Z,101281.25
2022-09-21T17:52:41.450Z,101287.28
2022-09-21T17:57:47.114Z,101295.00
2022-09-21T18:02:44.844Z,101303.81
2022-09-21T18:07:42.911Z,101302.97
2022-09-21T18:13:00.418Z,101300.22
2022-09-21T18:18:07.278Z,101299.16
2022-09-21T18:23:16.034Z,101309.81
2022-09-21T18:28:16.081Z,101325.47
2022-09-21T18:33:18.606Z,101329.97
2022-09-21T18:38:20.800Z,101330.19
2022-09-21T18:43:31.252Z,101334.06
2022-09-21T18:48:36.726Z,101341.47
2022-09-21T18:53:40.824Z,101313.03
2022-09-21T18:58:42.711Z,101338.75
2022-09-21T19:03:42.847Z,101338.47
2022-09-21T19:08:46.801Z,101334.19
2022-09-21T19:13:46.885Z,101335.47
2022-09-21T19:18:51.830Z,101324.78
2022-09-21T19:23:58.126Z,101316.97
2022-09-21T19:29:03.674Z,101313.59
2022-09-21T19:34:13.328Z,101314.13
2022-09-21T19:39:10.672Z,101319.78
2022-09-21T19:44:14.710Z,101308.63
2022-09-21T19:49:15.231Z,101306.34
2022-09-21T19:54:32.694Z,101301.13
2022-09-21T19:59:46.113Z,101307.69
2022-09-21T20:04:48.419Z,101300.09
2022-09-21T20:09:49.967Z,101313.97
2022-09-21T20:14:49.512Z,101292.03
2022-09-21T20:19:52.514Z,101320.38
2022-09-21T20:24:52.281Z,101319.41
2022-09-21T20:29:52.041Z,101319.63
2022-09-21T20:35:00.983Z,101318.00
2022-09-21T20:39:58.076Z,101321.44
2022-09-21T20:44:54.778Z,101317.78
2022-09-21T20:49:55.789Z,101317.13
2022-09-21T20:54:54.588Z,101325.06
2022-09-21T20:59:51.446Z,101323.53
2022-09-21T21:04:48.199Z,101316.88
2022-09-21T21:09:47.823Z,101325.47
2022-09-21T21:14:47.247Z,101319.91
2022-09-21T21:19:44.309Z,101320.19
2022-09-21T21:24:41.209Z,101323.78
2022-09-21T21:29:41.713Z,101313.78
2022-09-21T21:34:45.490Z,101319.16
2022-09-21T21:39:42.350Z,101322.44
2022-09-21T21:44:41.012Z,101327.78
2022-09-21T21:49:37.848Z,101322.09
2022-09-21T21:54:39.741Z,101314.09
2022-09-21T21:59:36.561Z,101320.72
2022-09-21T22:04:35.147Z,101313.97
2022-09-21T22:09:32.041Z,101324.31
2022-09-21T22:14:28.819Z,101316.19
2022-09-21T22:19:28.639Z,101314.63
2022-09-21T22:24:28.463Z,101320.41
2022-09-21T22:29:28.762Z,101321.22
2022-09-21T22:34:25.564Z,101315.84
2022-09-21T22:39:22.261Z,101323.03
2022-09-21T22:44:22.655Z,101327.88
2022-09-21T22:49:20.028Z,101328.41
2022-09-21T22:54:16.788Z,101328.69
2022-09-21T22:59:14.178Z,101329.25
2022-09-21T23:04:12.343Z,101333.41
2022-09-21T23:09:14.575Z,101330.03
2022-09-21T23:14:14.686Z,101324.28
2022-09-21T23:19:17.828Z,101323.50
2022-09-21T23:24:14.789Z,101313.38
2022-09-21T23:29:14.455Z,101319.84
2022-09-21T23:34:12.195Z,101312.72
2022-09-21T23:39:12.131Z,101316.13
2022-09-21T23:44:09.179Z,101318.22
2022-09-21T23:49:07.029Z,101314.56
2022-09-21T23:54:03.757Z,101320.06
2022-09-21T23:59:01.495Z,101311.06
